createdAt,value
2022-12-18T00:00:10.800Z,-1.42857
2022-12-18T00:01:10.882Z,-1.42857
2022-12-18T00:02:10.872Z,-1.42857
2022-12-18T00:03:11.005Z,-1.42857
2022-12-18T00:04:11.027Z,-1.35714
2022-12-18T00:05:10.984Z,-1.35714
2022-12-18T00:06:11.015Z,-1.35714
2022-12-18T00:07:11.041Z,-1.35714
2022-12-18T00:08:11.069Z,-1.35714
2022-12-18T00:09:11.104Z,-1.35714
2022-12-18T00:10:11.136Z,-1.42857
2022-12-18T00:11:11.198Z,-1.42857
2022-12-18T00:13:11.217Z,-1.5
2022-12-18T00:14:11.255Z,-1.5
2022-12-18T00:15:11.280Z,-1.57143
2022-12-18T00:16:11.430Z,-1.5
2022-12-18T00:17:11.346Z,-1.57143
2022-12-18T00:18:13.859Z,-1.57143
2022-12-18T00:19:11.418Z,-1.5
2022-12-18T00:20:11.442Z,-1.5
2022-12-18T00:21:11.471Z,-1.5
2022-12-18T00:22:11.509Z,-1.5
2022-12-18T00:23:11.546Z,-1.5
2022-12-18T00:24:11.569Z,-1.5
2022-12-18T00:25:11.612Z,-1.5
2022-12-18T00:26:11.637Z,-1.5
2022-12-18T00:27:11.671Z,-1.5
2022-12-18T00:28:11.706Z,-1.5
2022-12-18T00:29:11.739Z,-1.5
2022-12-18T00:30:11.775Z,-1.5
2022-12-18T00:31:11.849Z,-1.42857
2022-12-18T00:32:11.821Z,-1.42857
2022-12-18T00:33:11.864Z,-1.42857
2022-12-18T00:34:11.893Z,-1.42857
2022-12-18T00:35:11.930Z,-1.42857
2022-12-18T00:36:11.978Z,-1.35714
2022-12-18T00:37:16.829Z,-1.35714
2022-12-18T00:38:12.034Z,-1.35714
2022-12-18T00:39:12.065Z,-1.35714
2022-12-18T00:40:12.103Z,-1.35714
2022-12-18T00:41:12.131Z,-1.35714
2022-12-18T00:42:12.161Z,-1.35714
2022-12-18T00:43:12.191Z,-1.35714
2022-12-18T00:44:12.208Z,-1.35714
2022-12-18T00:45:12.919Z,-1.42857
2022-12-18T00:46:12.352Z,-1.42857
2022-12-18T00:47:12.304Z,-1.42857
2022-12-18T00:48:12.338Z,-1.5
2022-12-18T00:49:12.373Z,-1.5
2022-12-18T00:50:12.421Z,-1.42857
2022-12-18T00:51:12.455Z,-1.5
2022-12-18T00:52:12.461Z,-1.42857
2022-12-18T00:53:12.489Z,-1.42857
2022-12-18T00:54:12.519Z,-1.42857
2022-12-18T00:55:12.556Z,-1.42857
2022-12-18T00:56:12.594Z,-1.5
2022-12-18T00:57:12.604Z,-1.5
2022-12-18T00:58:12.636Z,-1.5
2022-12-18T00:59:12.665Z,-1.5
2022-12-18T01:00:12.696Z,-1.5
2022-12-18T01:01:12.769Z,-1.5
2022-12-18T01:02:12.896Z,-1.5
2022-12-18T01:03:12.896Z,-1.5
2022-12-18T01:04:12.819Z,-1.5
2022-12-18T01:05:12.862Z,-1.5
2022-12-18T01:06:12.900Z,-1.5
2022-12-18T01:07:12.923Z,-1.57143
2022-12-18T01:08:12.933Z,-1.64286
2022-12-18T01:09:12.966Z,-1.64286
2022-12-18T01:10:12.996Z,-1.64286
2022-12-18T01:11:13.030Z,-1.64286
2022-12-18T01:12:13.053Z,-1.71429
2022-12-18T01:13:13.083Z,-1.71429
2022-12-18T01:14:13.109Z,-1.78571
2022-12-18T01:15:13.150Z,-1.78571
2022-12-18T01:16:13.223Z,-1.85714
2022-12-18T01:17:13.213Z,-1.85714
2022-12-18T01:18:13.253Z,-1.85714
2022-12-18T01:19:13.285Z,-1.85714
2022-12-18T01:20:13.326Z,-1.85714
2022-12-18T01:21:13.367Z,-1.85714
2022-12-18T01:22:13.384Z,-1.85714
2022-12-18T01:23:13.411Z,-1.85714
2022-12-18T01:24:13.433Z,-1.85714
2022-12-18T01:25:13.476Z,-1.85714
2022-12-18T01:26:13.508Z,-1.78571
2022-12-18T01:27:13.534Z,-1.78571
2022-12-18T01:28:13.564Z,-1.78571
2022-12-18T01:29:13.599Z,-1.78571
2022-12-18T01:30:13.633Z,-1.78571
2022-12-18T01:31:13.700Z,-1.78571
2022-12-18T01:32:13.700Z,-1.78571
2022-12-18T01:33:13.728Z,-1.78571
2022-12-18T01:34:13.765Z,-1.78571
2022-12-18T01:35:13.793Z,-1.78571
2022-12-18T01:36:13.820Z,-1.78571
2022-12-18T01:37:13.856Z,-1.78571
2022-12-18T01:38:13.884Z,-1.78571
2022-12-18T01:39:13.922Z,-1.78571
2022-12-18T01:40:13.942Z,-1.78571
2022-12-18T01:41:13.981Z,-1.78571
2022-12-18T01:42:14.013Z,-1.85714
2022-12-18T01:43:14.041Z,-1.85714
2022-12-18T01:44:14.080Z,-1.85714
2022-12-18T01:45:14.130Z,-1.85714
2022-12-18T01:46:14.253Z,-1.85714
2022-12-18T01:47:14.180Z,-1.85714
2022-12-18T01:48:14.220Z,-1.85714
2022-12-18T01:49:14.258Z,-1.85714
2022-12-18T01:50:14.291Z,-1.85714
2022-12-18T01:51:14.330Z,-1.85714
2022-12-18T01:52:14.358Z,-1.78571
2022-12-18T01:53:14.401Z,-1.78571
2022-12-18T01:54:14.420Z,-1.78571
2022-12-18T01:55:14.452Z,-1.71429
2022-12-18T01:56:14.484Z,-1.71429
2022-12-18T01:57:14.518Z,-1.71429
2022-12-18T01:58:14.555Z,-1.64286
2022-12-18T01:59:14.582Z,-1.71429
2022-12-18T02:00:14.614Z,-1.71429
2022-12-18T02:01:14.691Z,-1.71429
2022-12-18T02:02:14.787Z,-1.71429
2022-12-18T02:03:14.834Z,-1.71429
2022-12-18T02:04:14.715Z,-1.71429
2022-12-18T02:05:14.746Z,-1.71429
2022-12-18T02:06:14.768Z,-1.71429
2022-12-18T02:07:14.800Z,-1.78571
2022-12-18T02:08:14.837Z,-1.78571
2022-12-18T02:09:14.872Z,-1.78571
2022-12-18T02:10:14.899Z,-1.78571
2022-12-18T02:11:14.960Z,-1.71429
2022-12-18T02:12:14.965Z,-1.71429
2022-12-18T02:13:14.992Z,-1.71429
2022-12-18T02:14:15.037Z,-1.71429
2022-12-18T02:15:15.065Z,-1.71429
2022-12-18T02:16:15.190Z,-1.64286
2022-12-18T02:17:15.118Z,-1.64286
2022-12-18T02:18:15.176Z,-1.64286
2022-12-18T02:19:15.180Z,-1.64286
2022-12-18T02:20:15.210Z,-1.64286
2022-12-18T02:21:15.239Z,-1.57143
2022-12-18T02:22:15.256Z,-1.57143
2022-12-18T02:23:15.292Z,-1.57143
2022-12-18T02:24:15.316Z,-1.57143
2022-12-18T02:25:15.356Z,-1.5
2022-12-18T02:26:15.385Z,-1.5
2022-12-18T02:27:15.412Z,-1.5
2022-12-18T02:28:15.447Z,-1.5
2022-12-18T02:29:15.474Z,-1.5
2022-12-18T02:30:15.513Z,-1.5
2022-12-18T02:31:15.685Z,-1.5
2022-12-18T02:32:15.573Z,-1.5
2022-12-18T02:33:15.593Z,-1.5
2022-12-18T02:34:15.623Z,-1.5
2022-12-18T02:35:15.652Z,-1.5
2022-12-18T02:36:15.698Z,-1.5
2022-12-18T02:37:15.724Z,-1.5
2022-12-18T02:38:15.756Z,-1.5
2022-12-18T02:39:15.786Z,-1.5
2022-12-18T02:40:15.807Z,-1.57143
2022-12-18T02:41:15.839Z,-1.57143
2022-12-18T02:42:15.870Z,-1.57143
2022-12-18T02:43:15.909Z,-1.57143
2022-12-18T02:44:15.938Z,-1.64286
2022-12-18T02:45:15.960Z,-1.64286
2022-12-18T02:46:16.087Z,-1.71429
2022-12-18T02:47:16.033Z,-1.71429
2022-12-18T02:48:16.066Z,-1.78571
2022-12-18T02:49:16.083Z,-1.78571
2022-12-18T02:50:16.119Z,-1.78571
2022-12-18T02:51:16.151Z,-1.78571
2022-12-18T02:52:16.184Z,-1.85714
2022-12-18T02:53:16.203Z,-1.85714
2022-12-18T02:54:16.237Z,-1.85714
2022-12-18T02:55:16.278Z,-1.92857
2022-12-18T02:56:16.312Z,-1.92857
2022-12-18T02:57:16.342Z,-1.92857
2022-12-18T02:58:16.365Z,-2
2022-12-18T02:59:16.399Z,-2
2022-12-18T03:00:16.438Z,-2
2022-12-18T03:01:16.616Z,-2
2022-12-18T03:02:16.652Z,-2
2022-12-18T03:03:16.554Z,-2
2022-12-18T03:04:16.544Z,-2
2022-12-18T03:05:16.575Z,-2
2022-12-18T03:06:16.640Z,-2
2022-12-18T03:07:16.638Z,-2
2022-12-18T03:08:16.665Z,-2
2022-12-18T03:09:16.697Z,-2
2022-12-18T03:10:16.736Z,-2
2022-12-18T03:11:16.780Z,-2
2022-12-18T03:12:16.792Z,-2
2022-12-18T03:13:16.828Z,-2
2022-12-18T03:14:16.865Z,-2
2022-12-18T03:15:17.939Z,-2
2022-12-18T03:16:16.956Z,-2
2022-12-18T03:17:16.945Z,-2
2022-12-18T03:18:16.980Z,-2
2022-12-18T03:19:17.020Z,-2
2022-12-18T03:20:17.053Z,-2
2022-12-18T03:21:17.105Z,-1.92857
2022-12-18T03:22:17.119Z,-1.92857
2022-12-18T03:23:17.151Z,-1.92857
2022-12-18T03:24:17.183Z,-1.85714
2022-12-18T03:25:17.220Z,-1.85714
2022-12-18T03:26:17.260Z,-1.85714
2022-12-18T03:27:17.274Z,-1.92857
2022-12-18T03:28:17.317Z,-1.92857
2022-12-18T03:29:17.348Z,-1.92857
2022-12-18T03:30:17.376Z,-2
2022-12-18T03:31:17.528Z,-2
2022-12-18T03:32:17.437Z,-2
2022-12-18T03:33:17.488Z,-2.07143
2022-12-18T03:34:17.502Z,-2.07143
2022-12-18T03:35:17.531Z,-2.07143
2022-12-18T03:36:17.562Z,-2.14286
2022-12-18T03:37:17.595Z,-2.14286
2022-12-18T03:38:17.627Z,-2.14286
2022-12-18T03:39:17.660Z,-2.14286
2022-12-18T03:40:17.679Z,-2.14286
2022-12-18T03:41:17.715Z,-2.14286
2022-12-18T03:42:17.734Z,-2.14286
2022-12-18T03:43:17.771Z,-2.14286
2022-12-18T03:44:17.800Z,-2.14286
2022-12-18T03:45:17.820Z,-2.14286
2022-12-18T03:46:17.880Z,-2.14286
2022-12-18T03:47:17.877Z,-2.14286
2022-12-18T03:48:17.916Z,-2.14286
2022-12-18T03:49:17.985Z,-2.14286
2022-12-18T03:50:17.968Z,-2.14286
2022-12-18T03:51:18.001Z,-2.14286
2022-12-18T03:52:18.037Z,-2.14286
2022-12-18T03:53:18.071Z,-2.14286
2022-12-18T03:54:18.093Z,-2.14286
2022-12-18T03:55:18.135Z,-2.14286
2022-12-18T03:56:18.160Z,-2.21429
2022-12-18T03:57:18.198Z,-2.21429
2022-12-18T03:58:18.224Z,-2.21429
2022-12-18T03:59:18.261Z,-2.28571
2022-12-18T04:00:18.288Z,-2.28571
2022-12-18T04:01:18.467Z,-2.28571
2022-12-18T04:02:18.502Z,-2.28571
2022-12-18T04:03:21.516Z,-2.28571
2022-12-18T04:04:18.408Z,-2.35714
2022-12-18T04:05:18.446Z,-2.35714
2022-12-18T04:06:18.495Z,-2.35714
2022-12-18T04:07:18.503Z,-2.35714
2022-12-18T04:08:18.532Z,-2.35714
2022-12-18T04:09:18.564Z,-2.28571
2022-12-18T04:10:18.607Z,-2.28571
2022-12-18T04:11:18.636Z,-2.21429
2022-12-18T04:12:18.658Z,-2.21429
2022-12-18T04:13:18.690Z,-2.21429
2022-12-18T04:14:18.773Z,-2.21429
2022-12-18T04:15:18.762Z,-2.21429
2022-12-18T04:16:18.820Z,-2.21429
2022-12-18T04:17:18.822Z,-2.21429
2022-12-18T04:18:18.863Z,-2.21429
2022-12-18T04:19:18.897Z,-2.28571
2022-12-18T04:20:18.930Z,-2.28571
2022-12-18T04:21:18.961Z,-2.28571
2022-12-18T04:22:18.992Z,-2.28571
2022-12-18T04:23:19.022Z,-2.28571
2022-12-18T04:24:19.056Z,-2.28571
2022-12-18T04:25:19.084Z,-2.28571
2022-12-18T04:26:19.119Z,-2.28571
2022-12-18T04:27:19.148Z,-2.28571
2022-12-18T04:28:19.188Z,-2.28571
2022-12-18T04:29:19.212Z,-2.28571
2022-12-18T04:30:19.239Z,-2.28571
2022-12-18T04:31:19.303Z,-2.28571
2022-12-18T04:32:19.312Z,-2.28571
2022-12-18T04:33:19.343Z,-2.28571
2022-12-18T04:34:19.369Z,-2.28571
2022-12-18T04:35:19.398Z,-2.28571
2022-12-18T04:36:19.418Z,-2.28571
2022-12-18T04:37:19.450Z,-2.21429
2022-12-18T04:38:19.490Z,-2.21429
2022-12-18T04:39:19.513Z,-2.21429
2022-12-18T04:40:19.548Z,-2.21429
2022-12-18T04:41:19.612Z,-2.21429
2022-12-18T04:42:19.610Z,-2.14286
2022-12-18T04:43:19.755Z,-2.14286
2022-12-18T04:44:19.667Z,-2.14286
2022-12-18T04:45:19.688Z,-2.14286
2022-12-18T04:46:19.752Z,-2.14286
2022-12-18T04:47:19.763Z,-2.07143
2022-12-18T04:48:19.783Z,-2.07143
2022-12-18T04:49:19.817Z,-2.07143
2022-12-18T04:50:19.849Z,-2.07143
2022-12-18T04:51:26.132Z,-2.07143
2022-12-18T04:52:19.903Z,-2.07143
2022-12-18T04:53:19.948Z,-2.07143
2022-12-18T04:54:19.975Z,-2.07143
2022-12-18T04:55:20.014Z,-2.07143
2022-12-18T04:56:20.039Z,-2.07143
2022-12-18T04:57:20.077Z,-2.07143
2022-12-18T04:58:20.105Z,-2.07143
2022-12-18T04:59:20.142Z,-2.07143
2022-12-18T05:00:20.167Z,-2.07143
2022-12-18T05:01:20.319Z,-2.07143
2022-12-18T05:02:20.368Z,-2.07143
2022-12-18T05:03:20.284Z,-2.07143
2022-12-18T05:04:20.320Z,-2
2022-12-18T05:05:20.326Z,-2.07143
2022-12-18T05:06:20.355Z,-2
2022-12-18T05:07:20.392Z,-2
2022-12-18T05:08:20.431Z,-2
2022-12-18T05:09:20.456Z,-2.07143
2022-12-18T05:10:20.492Z,-2.07143
2022-12-18T05:11:20.533Z,-2.07143
2022-12-18T05:12:20.547Z,-2.07143
2022-12-18T05:13:20.585Z,-2
2022-12-18T05:14:20.609Z,-2
2022-12-18T05:15:20.644Z,-2
2022-12-18T05:16:20.805Z,-2
2022-12-18T05:17:20.713Z,-2
2022-12-18T05:18:20.738Z,-2
2022-12-18T05:19:20.782Z,-2
2022-12-18T05:20:20.806Z,-2
2022-12-18T05:21:20.842Z,-2
2022-12-18T05:22:20.860Z,-2
2022-12-18T05:23:20.898Z,-2
2022-12-18T05:24:20.937Z,-2
2022-12-18T05:25:20.949Z,-2
2022-12-18T05:26:20.990Z,-2
2022-12-18T05:27:21.014Z,-2
2022-12-18T05:28:21.058Z,-2
2022-12-18T05:29:21.091Z,-2
2022-12-18T05:30:21.119Z,-2
2022-12-18T05:31:21.248Z,-1.92857
2022-12-18T05:32:21.179Z,-1.92857
2022-12-18T05:33:21.215Z,-2
2022-12-18T05:34:21.243Z,-2
2022-12-18T05:35:21.267Z,-2
2022-12-18T05:36:21.314Z,-2
2022-12-18T05:37:21.338Z,-2
2022-12-18T05:38:21.362Z,-2.07143
2022-12-18T05:39:21.390Z,-2.07143
2022-12-18T05:40:21.426Z,-2.07143
2022-12-18T05:41:21.448Z,-2.07143
2022-12-18T05:42:21.473Z,-2.14286
2022-12-18T05:43:21.815Z,-2.14286
2022-12-18T05:44:21.556Z,-2.14286
2022-12-18T05:45:21.586Z,-2.14286
2022-12-18T05:46:21.700Z,-2.14286
2022-12-18T05:47:21.659Z,-2.07143
2022-12-18T05:48:21.686Z,-2.07143
2022-12-18T05:49:21.721Z,-2.07143
2022-12-18T05:50:21.748Z,-2.07143
2022-12-18T05:51:21.868Z,-2
2022-12-18T05:52:21.809Z,-2
2022-12-18T05:53:21.843Z,-2
2022-12-18T05:54:21.868Z,-2
2022-12-18T05:55:21.897Z,-2
2022-12-18T05:56:21.939Z,-2
2022-12-18T05:57:21.966Z,-2
2022-12-18T05:58:21.996Z,-2
2022-12-18T05:59:22.025Z,-2
2022-12-18T06:00:22.052Z,-2
2022-12-18T06:01:22.109Z,-2
2022-12-18T06:02:22.340Z,-2
2022-12-18T06:03:22.251Z,-2
2022-12-18T06:04:22.189Z,-2
2022-12-18T06:05:22.221Z,-2
2022-12-18T06:06:22.248Z,-2
2022-12-18T06:07:22.287Z,-2.07143
2022-12-18T06:08:22.311Z,-2.07143
2022-12-18T06:09:22.345Z,-2.14286
2022-12-18T06:10:22.369Z,-2.14286
2022-12-18T06:11:22.418Z,-2.14286
2022-12-18T06:12:22.432Z,-2.14286
2022-12-18T06:13:22.447Z,-2.14286
2022-12-18T06:14:22.470Z,-2.07143
2022-12-18T06:15:22.510Z,-2.07143
2022-12-18T06:16:22.619Z,-2.07143
2022-12-18T06:17:22.569Z,-2.07143
2022-12-18T06:18:22.608Z,-2.07143
2022-12-18T06:19:22.638Z,-2.07143
2022-12-18T06:20:22.673Z,-2.07143
2022-12-18T06:21:22.703Z,-2.07143
2022-12-18T06:22:22.731Z,-2.07143
2022-12-18T06:23:22.765Z,-2.07143
2022-12-18T06:24:22.792Z,-2.14286
2022-12-18T06:25:22.824Z,-2.14286
2022-12-18T06:26:27.760Z,-2.14286
2022-12-18T06:27:22.884Z,-2.14286
2022-12-18T06:28:22.902Z,-2.21429
2022-12-18T06:29:22.939Z,-2.21429
2022-12-18T06:30:22.970Z,-2.28571
2022-12-18T06:31:23.112Z,-2.28571
2022-12-18T06:32:23.035Z,-2.28571
2022-12-18T06:33:23.077Z,-2.28571
2022-12-18T06:34:23.118Z,-2.35714
2022-12-18T06:35:23.142Z,-2.35714
2022-12-18T06:36:23.186Z,-2.35714
2022-12-18T06:37:23.204Z,-2.35714
2022-12-18T06:38:23.252Z,-2.35714
2022-12-18T06:39:23.272Z,-2.35714
2022-12-18T06:40:23.296Z,-2.35714
2022-12-18T06:41:23.341Z,-2.35714
2022-12-18T06:42:23.369Z,-2.35714
2022-12-18T06:43:23.396Z,-2.35714
2022-12-18T06:44:23.423Z,-2.35714
2022-12-18T06:45:23.448Z,-2.35714
2022-12-18T06:46:23.489Z,-2.28571
2022-12-18T06:47:23.511Z,-2.28571
2022-12-18T06:48:23.547Z,-2.28571
2022-12-18T06:49:28.763Z,-2.28571
2022-12-18T06:50:23.604Z,-2.28571
2022-12-18T06:51:23.627Z,-2.21429
2022-12-18T06:52:23.657Z,-2.28571
2022-12-18T06:53:23.684Z,-2.28571
2022-12-18T06:54:23.753Z,-2.28571
2022-12-18T06:55:23.750Z,-2.28571
2022-12-18T06:56:23.801Z,-2.28571
2022-12-18T06:57:23.817Z,-2.28571
2022-12-18T06:58:23.852Z,-2.35714
2022-12-18T06:59:23.871Z,-2.28571
2022-12-18T07:00:23.888Z,-2.28571
2022-12-18T07:01:24.116Z,-2.28571
2022-12-18T07:02:24.106Z,-2.35714
2022-12-18T07:03:23.980Z,-2.35714
2022-12-18T07:04:24.021Z,-2.35714
2022-12-18T07:05:24.044Z,-2.35714
2022-12-18T07:06:24.087Z,-2.35714
2022-12-18T07:07:24.120Z,-2.42857
2022-12-18T07:08:24.139Z,-2.35714
2022-12-18T07:09:24.182Z,-2.35714
2022-12-18T07:10:24.202Z,-2.35714
2022-12-18T07:11:24.230Z,-2.28571
2022-12-18T07:12:24.251Z,-2.35714
2022-12-18T07:13:24.290Z,-2.35714
2022-12-18T07:14:24.347Z,-2.35714
2022-12-18T07:15:24.375Z,-2.35714
2022-12-18T07:16:25.820Z,-2.35714
2022-12-18T07:17:24.406Z,-2.42857
2022-12-18T07:18:24.449Z,-2.35714
2022-12-18T07:19:24.477Z,-2.35714
2022-12-18T07:20:24.498Z,-2.35714
2022-12-18T07:21:24.530Z,-2.35714
2022-12-18T07:22:24.554Z,-2.35714
2022-12-18T07:23:24.593Z,-2.35714
2022-12-18T07:24:24.622Z,-2.35714
2022-12-18T07:25:24.659Z,-2.35714
2022-12-18T07:26:24.678Z,-2.35714
2022-12-18T07:27:24.720Z,-2.28571
2022-12-18T07:28:24.753Z,-2.28571
2022-12-18T07:29:24.781Z,-2.28571
2022-12-18T07:30:24.812Z,-2.28571
2022-12-18T07:31:24.957Z,-2.28571
2022-12-18T07:32:24.875Z,-2.28571
2022-12-18T07:33:24.909Z,-2.28571
2022-12-18T07:34:24.937Z,-2.28571
2022-12-18T07:35:25.516Z,-2.28571
2022-12-18T07:36:24.998Z,-2.35714
2022-12-18T07:37:25.029Z,-2.35714
2022-12-18T07:38:25.060Z,-2.35714
2022-12-18T07:39:25.080Z,-2.35714
2022-12-18T07:40:25.128Z,-2.35714
2022-12-18T07:41:25.150Z,-2.35714
2022-12-18T07:42:25.183Z,-2.35714
2022-12-18T07:43:25.227Z,-2.35714
2022-12-18T07:44:25.252Z,-2.35714
2022-12-18T07:45:25.424Z,-2.35714
2022-12-18T07:46:25.385Z,-2.35714
2022-12-18T07:47:25.343Z,-2.35714
2022-12-18T07:48:25.375Z,-2.35714
2022-12-18T07:49:25.405Z,-2.35714
2022-12-18T07:50:25.420Z,-2.35714
2022-12-18T07:51:25.456Z,-2.35714
2022-12-18T07:52:26.334Z,-2.35714
2022-12-18T07:53:25.513Z,-2.35714
2022-12-18T07:54:25.541Z,-2.35714
2022-12-18T07:55:25.574Z,-2.35714
2022-12-18T07:56:27.752Z,-2.35714
2022-12-18T07:57:49.505Z,-2.35714
2022-12-18T07:58:25.661Z,-2.35714
2022-12-18T07:59:25.696Z,-2.28571
2022-12-18T08:00:25.724Z,-2.28571
2022-12-18T08:01:26.129Z,-2.28571
2022-12-18T08:02:25.918Z,-2.28571
2022-12-18T08:03:25.913Z,-2.28571
2022-12-18T08:04:25.850Z,-2.21429
2022-12-18T08:05:25.871Z,-2.21429
2022-12-18T08:06:25.908Z,-2.21429
2022-12-18T08:07:25.934Z,-2.21429
2022-12-18T08:08:25.966Z,-2.21429
2022-12-18T08:09:25.999Z,-2.21429
2022-12-18T08:10:26.041Z,-2.21429
2022-12-18T08:11:26.074Z,-2.21429
2022-12-18T08:12:26.105Z,-2.21429
2022-12-18T08:13:26.127Z,-2.21429
2022-12-18T08:14:26.176Z,-2.14286
2022-12-18T08:15:26.190Z,-2.14286
2022-12-18T08:16:26.315Z,-2.14286
2022-12-18T08:17:26.244Z,-2.14286
2022-12-18T08:18:26.266Z,-2.14286
2022-12-18T08:19:26.300Z,-2.07143
2022-12-18T08:20:26.324Z,-2.07143
2022-12-18T08:21:26.353Z,-2.14286
2022-12-18T08:22:26.382Z,-2.07143
2022-12-18T08:23:28.697Z,-2.07143
2022-12-18T08:24:26.446Z,-2.07143
2022-12-18T08:25:26.476Z,-2.07143
2022-12-18T08:26:26.506Z,-2
2022-12-18T08:27:30.322Z,-2
2022-12-18T08:28:26.559Z,-2
2022-12-18T08:29:26.599Z,-2
2022-12-18T08:30:26.715Z,-2
2022-12-18T08:31:26.652Z,-2
2022-12-18T08:32:26.785Z,-1.92857
2022-12-18T08:33:26.698Z,-1.92857
2022-12-18T08:34:26.723Z,-1.92857
2022-12-18T08:35:29.532Z,-1.92857
2022-12-18T08:36:27.043Z,-1.92857
2022-12-18T08:37:26.806Z,-1.92857
2022-12-18T08:38:26.844Z,-1.85714
2022-12-18T08:39:26.874Z,-1.85714
2022-12-18T08:40:27.032Z,-1.85714
2022-12-18T08:41:26.963Z,-1.85714
2022-12-18T08:42:26.965Z,-1.85714
2022-12-18T08:43:26.987Z,-1.85714
2022-12-18T08:44:27.019Z,-1.85714
2022-12-18T08:45:27.053Z,-1.85714
2022-12-18T08:46:27.159Z,-1.85714
2022-12-18T08:47:27.137Z,-1.85714
2022-12-18T08:48:27.147Z,-1.85714
2022-12-18T08:49:27.182Z,-1.85714
2022-12-18T08:50:27.211Z,-1.85714
2022-12-18T08:51:27.244Z,-1.85714
2022-12-18T08:52:27.275Z,-1.85714
2022-12-18T08:53:31.443Z,-1.85714
2022-12-18T08:54:27.335Z,-1.78571
2022-12-18T08:55:27.367Z,-1.78571
2022-12-18T08:56:27.397Z,-1.78571
2022-12-18T08:57:27.440Z,-1.78571
2022-12-18T08:58:27.458Z,-1.78571
2022-12-18T08:59:27.474Z,-1.78571
2022-12-18T09:00:27.519Z,-1.78571
2022-12-18T09:01:27.706Z,-1.78571
2022-12-18T09:02:27.917Z,-1.71429
2022-12-18T09:03:27.658Z,-1.71429
2022-12-18T09:04:27.641Z,-1.71429
2022-12-18T09:05:27.686Z,-1.71429
2022-12-18T09:06:27.748Z,-1.71429
2022-12-18T09:07:27.742Z,-1.78571
2022-12-18T09:08:27.779Z,-1.71429
2022-12-18T09:09:27.802Z,-1.78571
2022-12-18T09:10:27.830Z,-1.71429
2022-12-18T09:11:27.866Z,-1.71429
2022-12-18T09:12:27.904Z,-1.71429
2022-12-18T09:13:27.921Z,-1.71429
2022-12-18T09:14:27.957Z,-1.71429
2022-12-18T09:15:27.983Z,-1.71429
2022-12-18T09:16:32.008Z,-1.71429
2022-12-18T09:17:28.051Z,-1.64286
2022-12-18T09:18:28.082Z,-1.64286
2022-12-18T09:19:28.120Z,-1.64286
2022-12-18T09:20:28.149Z,-1.64286
2022-12-18T09:21:28.176Z,-1.57143
2022-12-18T09:22:28.226Z,-1.57143
2022-12-18T09:23:28.249Z,-1.57143
2022-12-18T09:24:28.282Z,-1.57143
2022-12-18T09:25:28.313Z,-1.57143
2022-12-18T09:26:28.339Z,-1.57143
2022-12-18T09:27:28.373Z,-1.5
2022-12-18T09:28:28.410Z,-1.5
2022-12-18T09:29:28.434Z,-1.57143
2022-12-18T09:30:28.616Z,-1.57143
2022-12-18T09:31:28.502Z,-1.5
2022-12-18T09:32:28.538Z,-1.5
2022-12-18T09:33:28.569Z,-1.5
2022-12-18T09:34:28.604Z,-1.5
2022-12-18T09:35:28.636Z,-1.5
2022-12-18T09:36:28.663Z,-1.5
2022-12-18T09:37:28.730Z,-1.5
2022-12-18T09:38:28.724Z,-1.5
2022-12-18T09:39:28.765Z,-1.5
2022-12-18T09:40:28.783Z,-1.5
2022-12-18T09:41:28.814Z,-1.42857
2022-12-18T09:42:28.852Z,-1.42857
2022-12-18T09:43:28.912Z,-1.42857
2022-12-18T09:44:28.984Z,-1.42857
2022-12-18T09:45:28.950Z,-1.35714
2022-12-18T09:46:29.006Z,-1.35714
2022-12-18T09:47:29.106Z,-1.35714
2022-12-18T09:48:29.036Z,-1.28571
2022-12-18T09:49:29.066Z,-1.28571
2022-12-18T09:50:29.087Z,-1.28571
2022-12-18T09:51:29.122Z,-1.28571
2022-12-18T09:52:29.155Z,-1.28571
2022-12-18T09:53:29.180Z,-1.21429
2022-12-18T09:54:29.215Z,-1.21429
2022-12-18T09:55:35.154Z,-1.21429
2022-12-18T09:56:29.284Z,-1.21429
2022-12-18T09:57:29.304Z,-1.14286
2022-12-18T09:58:29.341Z,-1.14286
2022-12-18T09:59:29.369Z,-1.14286
2022-12-18T10:00:29.399Z,-1.14286
2022-12-18T10:01:38.943Z,-1.21429
2022-12-18T10:02:29.721Z,-1.21429
2022-12-18T10:03:29.502Z,-1.28571
2022-12-18T10:04:29.578Z,-1.28571
2022-12-18T10:05:29.575Z,-1.28571
2022-12-18T10:06:29.603Z,-1.28571
2022-12-18T10:07:29.638Z,-1.28571
2022-12-18T10:08:29.666Z,-1.28571
2022-12-18T10:09:29.705Z,-1.28571
2022-12-18T10:10:29.732Z,-1.28571
2022-12-18T10:11:29.757Z,-1.28571
2022-12-18T10:12:29.789Z,-1.28571
2022-12-18T10:13:29.816Z,-1.28571
2022-12-18T10:14:29.848Z,-1.28571
2022-12-18T10:15:30.015Z,-1.28571
2022-12-18T10:16:29.914Z,-1.28571
2022-12-18T10:17:29.943Z,-1.21429
2022-12-18T10:18:29.969Z,-1.21429
2022-12-18T10:19:29.995Z,-1.21429
2022-12-18T10:20:30.084Z,-1.21429
2022-12-18T10:21:30.060Z,-1.21429
2022-12-18T10:22:30.093Z,-1.21429
2022-12-18T10:23:30.121Z,-1.21429
2022-12-18T10:24:30.152Z,-1.21429
2022-12-18T10:25:30.181Z,-1.21429
2022-12-18T10:26:30.224Z,-1.21429
2022-12-18T10:27:30.250Z,-1.21429
2022-12-18T10:28:30.286Z,-1.21429
2022-12-18T10:29:30.317Z,-1.21429
2022-12-18T10:30:30.354Z,-1.14286
2022-12-18T10:31:30.460Z,-1.14286
2022-12-18T10:32:30.438Z,-1.14286
2022-12-18T10:33:30.455Z,-1.14286
2022-12-18T10:34:30.497Z,-1.07143
2022-12-18T10:35:30.533Z,-1.07143
2022-12-18T10:36:30.560Z,-1.07143
2022-12-18T10:37:30.588Z,-1.07143
2022-12-18T10:38:30.611Z,-1
2022-12-18T10:39:30.647Z,-1
2022-12-18T10:40:30.687Z,-1
2022-12-18T10:41:30.717Z,-1
2022-12-18T10:42:30.747Z,-1.07143
2022-12-18T10:43:30.784Z,-1.07143
2022-12-18T10:44:30.814Z,-1.07143
2022-12-18T10:45:30.850Z,-1
2022-12-18T10:46:30.926Z,-1
2022-12-18T10:47:30.910Z,-1
2022-12-18T10:48:30.946Z,-1
2022-12-18T10:49:30.967Z,-1
2022-12-18T10:50:54.029Z,-0.928571
2022-12-18T10:51:31.744Z,-0.928571
2022-12-18T10:52:31.061Z,-0.857143
2022-12-18T10:53:31.099Z,-0.857143
2022-12-18T10:54:31.124Z,-0.857143
2022-12-18T10:55:31.158Z,-0.785714
2022-12-18T10:56:31.189Z,-0.785714
2022-12-18T10:57:31.218Z,-0.785714
2022-12-18T10:58:31.258Z,-0.785714
2022-12-18T10:59:31.294Z,-0.785714
2022-12-18T11:00:31.333Z,-0.785714
2022-12-18T11:01:31.471Z,-0.857143
2022-12-18T11:02:31.714Z,-0.857143
2022-12-18T11:03:31.456Z,-0.785714
2022-12-18T11:04:31.459Z,-0.785714
2022-12-18T11:05:31.474Z,-0.785714
2022-12-18T11:06:31.511Z,-0.785714
2022-12-18T11:07:31.537Z,-0.785714
2022-12-18T11:08:31.569Z,-0.785714
2022-12-18T11:09:31.601Z,-0.785714
2022-12-18T11:10:31.635Z,-0.785714
2022-12-18T11:11:31.661Z,-0.785714
2022-12-18T11:12:31.693Z,-0.785714
2022-12-18T11:13:31.742Z,-0.785714
2022-12-18T11:14:31.789Z,-0.857143
2022-12-18T11:15:31.804Z,-0.857143
2022-12-18T11:16:32.056Z,-0.857143
2022-12-18T11:17:31.941Z,-0.928571
2022-12-18T11:18:31.896Z,-0.928571
2022-12-18T11:19:31.942Z,-0.928571
2022-12-18T11:20:31.965Z,-0.928571
2022-12-18T11:21:31.996Z,-0.928571
2022-12-18T11:22:32.023Z,-0.928571
2022-12-18T11:23:32.054Z,-0.928571
2022-12-18T11:24:32.068Z,-0.928571
2022-12-18T11:25:32.755Z,-0.928571
2022-12-18T11:26:32.144Z,-0.928571
2022-12-18T11:27:32.175Z,-0.928571
2022-12-18T11:28:32.194Z,-0.928571
2022-12-18T11:29:32.220Z,-1
2022-12-18T11:30:32.259Z,-1
2022-12-18T11:31:32.456Z,-1
2022-12-18T11:32:32.308Z,-1
2022-12-18T11:33:32.334Z,-1
2022-12-18T11:34:32.361Z,-0.928571
2022-12-18T11:35:32.396Z,-0.928571
2022-12-18T11:36:32.429Z,-0.928571
2022-12-18T11:37:32.451Z,-0.928571
2022-12-18T11:38:32.482Z,-0.928571
2022-12-18T11:39:32.529Z,-0.928571
2022-12-18T11:40:36.498Z,-0.928571
2022-12-18T11:41:32.587Z,-0.857143
2022-12-18T11:42:32.619Z,-0.785714
2022-12-18T11:43:32.657Z,-0.714286
2022-12-18T11:44:32.700Z,-0.714286
2022-12-18T11:45:32.727Z,-0.714286
2022-12-18T11:46:32.772Z,-0.714286
2022-12-18T11:47:32.791Z,-0.714286
2022-12-18T11:48:32.822Z,-0.642857
2022-12-18T11:49:32.843Z,-0.642857
2022-12-18T11:50:32.878Z,-0.571429
2022-12-18T11:51:32.899Z,-0.571429
2022-12-18T11:52:32.937Z,-0.571429
2022-12-18T11:53:32.962Z,-0.5
2022-12-18T11:54:32.997Z,-0.5
2022-12-18T11:55:33.013Z,-0.428571
2022-12-18T11:56:33.050Z,-0.428571
2022-12-18T11:57:33.075Z,-0.428571
2022-12-18T11:58:33.105Z,-0.428571
2022-12-18T11:59:33.149Z,-0.428571
2022-12-18T12:00:33.172Z,-0.357143
2022-12-18T12:01:34.787Z,-0.357143
2022-12-18T12:02:33.299Z,-0.357143
2022-12-18T12:03:33.310Z,-0.357143
2022-12-18T12:04:33.385Z,-0.357143
2022-12-18T12:05:33.335Z,-0.285714